OIZJ  Jask Airport

Add Bookmark

Jask, Iran

Status
Operational
Latitude Longitude
25° 39' 12" N 57° 47' 57" E
25.653601 57.799301
Local (DST + 5) UTC (GMT + 4)
Dec 22, 2014 05:42 Dec 22, 2014 14:12
Sunrise-Sunset Local UTC
Begin Civil Twilight 05:54 02:24
Sunrise 06:20 02:50
Sunset 04:54 13:24
End Civil Twilight 05:19 13:49

Current Weather

METAR Observed MVFR
OIZJ 221200Z 27016KT 6000 SKC 24/17 Q1010 Mon, Dec 22, 2014 @ 12:00 UTC
(2 Hours, 12 Minutes ago)
Marginal Visual Flight Rules
Wind Visibility Clouds Conditions
270° at 16 knots (30 kph) 6000 meters
  • Clear skies
  • No significant weather
Temperatures Readings Precipitation
Current Temp 24°C (75°F)
Dewpoint 17°C (63°F)
Humidity 65%
Altimeter 29.82"Hg
Sea Level Pressure 1010mb
Field Elevation 13.12'
None Recorded

Additional weather within a 185.2km radius of OIZJ

Map ICAO Location
OMFJ 159.8km W (248°)

24 Hour Weather History

Loading
-

24 Hour Weather Graphs

Loading
-

CheckWX.com is intended as a tool to help pilots better visualize weather data. It is not intended as a substitute for an official weather briefing obtained from a Flight Service Station. CheckWX.com does not meet the FAA requirements for an official pre-flight weather briefing. Therefore, it's important that pilots still call and obtain an official FSS pre-flight weather briefing.